sensor_id;sensor_type;location;lat;lon;timestamp;pressure;altitude;pressure_sealevel;temperature
53667;BMP280;39568;51.026;5.468;2023-03-14T00:00:58;98283.63;;;10.43
53667;BMP280;39568;51.026;5.468;2023-03-14T00:03:25;98272.34;;;10.35
53667;BMP280;39568;51.026;5.468;2023-03-14T00:05:55;98269.28;;;10.38
53667;BMP280;39568;51.026;5.468;2023-03-14T00:08:22;98271.06;;;10.43
53667;BMP280;39568;51.026;5.468;2023-03-14T00:10:50;98277.63;;;10.42
53667;BMP280;39568;51.026;5.468;2023-03-14T00:13:16;98268.59;;;10.45
53667;BMP280;39568;51.026;5.468;2023-03-14T00:15:43;98269.28;;;10.38
53667;BMP280;39568;51.026;5.468;2023-03-14T00:18:10;98274.13;;;10.32
53667;BMP280;39568;51.026;5.468;2023-03-14T00:20:36;98263.66;;;10.34
53667;BMP280;39568;51.026;5.468;2023-03-14T00:23:04;98275.56;;;10.33
53667;BMP280;39568;51.026;5.468;2023-03-14T00:25:31;98285.66;;;10.27
53667;BMP280;39568;51.026;5.468;2023-03-14T00:27:58;98272.94;;;10.26
53667;BMP280;39568;51.026;5.468;2023-03-14T00:30:24;98294.16;;;10.33
53667;BMP280;39568;51.026;5.468;2023-03-14T00:32:51;98285.28;;;10.31
53667;BMP280;39568;51.026;5.468;2023-03-14T00:35:18;98285.09;;;10.36
53667;BMP280;39568;51.026;5.468;2023-03-14T00:37:45;98311.81;;;10.38
53667;BMP280;39568;51.026;5.468;2023-03-14T00:40:13;98291.63;;;10.43
53667;BMP280;39568;51.026;5.468;2023-03-14T00:42:40;98310.09;;;10.33
53667;BMP280;39568;51.026;5.468;2023-03-14T00:45:07;98297.72;;;10.28
53667;BMP280;39568;51.026;5.468;2023-03-14T00:47:35;98322.47;;;10.31
53667;BMP280;39568;51.026;5.468;2023-03-14T00:50:02;98321.78;;;10.30
53667;BMP280;39568;51.026;5.468;2023-03-14T00:52:28;98312.53;;;10.39
53667;BMP280;39568;51.026;5.468;2023-03-14T00:54:55;98314.16;;;10.34
53667;BMP280;39568;51.026;5.468;2023-03-14T00:57:23;98301.22;;;10.31
53667;BMP280;39568;51.026;5.468;2023-03-14T00:59:51;98317.59;;;10.19
53667;BMP280;39568;51.026;5.468;2023-03-14T01:02:17;98305.06;;;10.05
53667;BMP280;39568;51.026;5.468;2023-03-14T01:04:47;98310.94;;;9.96
53667;BMP280;39568;51.026;5.468;2023-03-14T01:07:14;98290.06;;;9.85
53667;BMP280;39568;51.026;5.468;2023-03-14T01:09:40;98294.69;;;9.77
53667;BMP280;39568;51.026;5.468;2023-03-14T01:12:07;98298.56;;;9.76
53667;BMP280;39568;51.026;5.468;2023-03-14T01:14:35;98297.88;;;9.83
53667;BMP280;39568;51.026;5.468;2023-03-14T01:17:02;98278.97;;;9.79
53667;BMP280;39568;51.026;5.468;2023-03-14T01:19:28;98278.41;;;9.73
53667;BMP280;39568;51.026;5.468;2023-03-14T01:21:55;98277.34;;;9.76
53667;BMP280;39568;51.026;5.468;2023-03-14T01:24:22;98271.13;;;9.81
53667;BMP280;39568;51.026;5.468;2023-03-14T01:26:49;98262.09;;;9.84
53667;BMP280;39568;51.026;5.468;2023-03-14T01:29:15;98255.38;;;9.90
53667;BMP280;39568;51.026;5.468;2023-03-14T01:31:43;98245.78;;;9.95
53667;BMP280;39568;51.026;5.468;2023-03-14T01:34:10;98256.75;;;9.91
53667;BMP280;39568;51.026;5.468;2023-03-14T01:36:37;98252.50;;;9.96
53667;BMP280;39568;51.026;5.468;2023-03-14T01:39:03;98248.94;;;10.01
53667;BMP280;39568;51.026;5.468;2023-03-14T01:41:31;98272.63;;;10.06
53667;BMP280;39568;51.026;5.468;2023-03-14T01:43:58;98237.94;;;10.12
53667;BMP280;39568;51.026;5.468;2023-03-14T01:46:29;98243.72;;;10.18
53667;BMP280;39568;51.026;5.468;2023-03-14T01:49:07;98231.38;;;10.13
53667;BMP280;39568;51.026;5.468;2023-03-14T01:51:40;98221.28;;;10.11
53667;BMP280;39568;51.026;5.468;2023-03-14T01:54:11;98222.66;;;10.20
53667;BMP280;39568;51.026;5.468;2023-03-14T01:56:39;98220.00;;;10.20
53667;BMP280;39568;51.026;5.468;2023-03-14T01:59:08;98215.22;;;10.18
53667;BMP280;39568;51.026;5.468;2023-03-14T02:01:36;98206.66;;;10.28
53667;BMP280;39568;51.026;5.468;2023-03-14T02:04:07;98219.09;;;10.25
53667;BMP280;39568;51.026;5.468;2023-03-14T02:06:40;98207.09;;;10.16
53667;BMP280;39568;51.026;5.468;2023-03-14T02:09:07;98206.72;;;10.20
53667;BMP280;39568;51.026;5.468;2023-03-14T02:11:34;98208.09;;;10.29
53667;BMP280;39568;51.026;5.468;2023-03-14T02:14:02;98189.97;;;10.35
53667;BMP280;39568;51.026;5.468;2023-03-14T02:16:30;98197.66;;;10.23
53667;BMP280;39568;51.026;5.468;2023-03-14T02:18:57;98207.03;;;10.24
53667;BMP280;39568;51.026;5.468;2023-03-14T02:21:30;98193.88;;;10.34
53667;BMP280;39568;51.026;5.468;2023-03-14T02:24:04;98203.31;;;10.27
53667;BMP280;39568;51.026;5.468;2023-03-14T02:26:38;98248.38;;;10.42
53667;BMP280;39568;51.026;5.468;2023-03-14T02:29:06;98196.66;;;10.43
53667;BMP280;39568;51.026;5.468;2023-03-14T02:31:33;98186.88;;;10.46
53667;BMP280;39568;51.026;5.468;2023-03-14T02:34:00;98198.44;;;10.41
53667;BMP280;39568;51.026;5.468;2023-03-14T02:36:28;98207.28;;;10.43
53667;BMP280;39568;51.026;5.468;2023-03-14T02:39:00;98195.78;;;10.41
53667;BMP280;39568;51.026;5.468;2023-03-14T02:41:31;98208.94;;;10.31
53667;BMP280;39568;51.026;5.468;2023-03-14T02:43:57;98194.19;;;10.13
53667;BMP280;39568;51.026;5.468;2023-03-14T02:46:26;98194.31;;;9.83
53667;BMP280;39568;51.026;5.468;2023-03-14T02:48:54;98237.91;;;9.65
53667;BMP280;39568;51.026;5.468;2023-03-14T02:51:23;98197.06;;;9.52
53667;BMP280;39568;51.026;5.468;2023-03-14T02:53:50;98225.41;;;9.42
53667;BMP280;39568;51.026;5.468;2023-03-14T02:56:17;98202.44;;;9.30
53667;BMP280;39568;51.026;5.468;2023-03-14T02:58:43;98219.78;;;9.31
53667;BMP280;39568;51.026;5.468;2023-03-14T03:01:10;98212.69;;;9.18
53667;BMP280;39568;51.026;5.468;2023-03-14T03:03:38;98200.69;;;9.10
53667;BMP280;39568;51.026;5.468;2023-03-14T03:06:06;98202.63;;;9.09
53667;BMP280;39568;51.026;5.468;2023-03-14T03:08:33;98204.94;;;9.05
53667;BMP280;39568;51.026;5.468;2023-03-14T03:10:59;98191.69;;;9.05
53667;BMP280;39568;51.026;5.468;2023-03-14T03:13:26;98201.56;;;8.89
53667;BMP280;39568;51.026;5.468;2023-03-14T03:15:53;98186.56;;;8.92
53667;BMP280;39568;51.026;5.468;2023-03-14T03:18:20;98175.97;;;8.84
53667;BMP280;39568;51.026;5.468;2023-03-14T03:20:48;98193.81;;;8.84
53667;BMP280;39568;51.026;5.468;2023-03-14T03:23:15;98189.03;;;8.75
53667;BMP280;39568;51.026;5.468;2023-03-14T03:25:41;98184.06;;;8.79
53667;BMP280;39568;51.026;5.468;2023-03-14T03:28:08;98171.19;;;8.83
53667;BMP280;39568;51.026;5.468;2023-03-14T03:30:38;98172.75;;;8.71
53667;BMP280;39568;51.026;5.468;2023-03-14T03:33:04;98173.31;;;8.69
53667;BMP280;39568;51.026;5.468;2023-03-14T03:35:31;98175.25;;;8.69
53667;BMP280;39568;51.026;5.468;2023-03-14T03:37:59;98167.81;;;8.75
53667;BMP280;39568;51.026;5.468;2023-03-14T03:40:26;98157.56;;;8.79
53667;BMP280;39568;51.026;5.468;2023-03-14T03:42:53;98169.06;;;8.66
53667;BMP280;39568;51.026;5.468;2023-03-14T03:45:20;98154.94;;;8.64
53667;BMP280;39568;51.026;5.468;2023-03-14T03:47:46;98158.28;;;8.64
53667;BMP280;39568;51.026;5.468;2023-03-14T03:50:13;98163.59;;;8.64
53667;BMP280;39568;51.026;5.468;2023-03-14T03:52:40;98146.78;;;8.62
53667;BMP280;39568;51.026;5.468;2023-03-14T03:55:08;98153.00;;;8.57
53667;BMP280;39568;51.026;5.468;2023-03-14T03:57:35;98148.41;;;8.65
53667;BMP280;39568;51.026;5.468;2023-03-14T04:00:02;98149.97;;;8.68
53667;BMP280;39568;51.026;5.468;2023-03-14T04:02:30;98163.38;;;8.70
53667;BMP280;39568;51.026;5.468;2023-03-14T04:04:56;98165.88;;;8.83
53667;BMP280;39568;51.026;5.468;2023-03-14T04:07:23;98173.47;;;8.86
53667;BMP280;39568;51.026;5.468;2023-03-14T04:09:50;98150.16;;;8.92
53667;BMP280;39568;51.026;5.468;2023-03-14T04:12:18;98152.25;;;9.02
53667;BMP280;39568;51.026;5.468;2023-03-14T04:14:45;98160.72;;;9.08
53667;BMP280;39568;51.026;5.468;2023-03-14T04:17:12;98153.31;;;8.98
53667;BMP280;39568;51.026;5.468;2023-03-14T04:19:38;98159.50;;;8.93
53667;BMP280;39568;51.026;5.468;2023-03-14T04:22:06;98159.69;;;9.03
53667;BMP280;39568;51.026;5.468;2023-03-14T04:24:32;98155.25;;;8.98
53667;BMP280;39568;51.026;5.468;2023-03-14T04:26:59;98143.03;;;9.10
53667;BMP280;39568;51.026;5.468;2023-03-14T04:29:27;98149.25;;;9.05
53667;BMP280;39568;51.026;5.468;2023-03-14T04:31:54;98139.91;;;9.04
53667;BMP280;39568;51.026;5.468;2023-03-14T04:34:20;98138.63;;;9.05
53667;BMP280;39568;51.026;5.468;2023-03-14T04:36:47;98134.22;;;9.08
53667;BMP280;39568;51.026;5.468;2023-03-14T04:39:14;98147.63;;;9.10
53667;BMP280;39568;51.026;5.468;2023-03-14T04:41:40;98132.63;;;9.12
53667;BMP280;39568;51.026;5.468;2023-03-14T04:44:07;98122.56;;;9.03
53667;BMP280;39568;51.026;5.468;2023-03-14T04:46:35;98128.03;;;9.05
53667;BMP280;39568;51.026;5.468;2023-03-14T04:49:02;98132.63;;;9.12
53667;BMP280;39568;51.026;5.468;2023-03-14T04:51:28;98137.19;;;9.19
53667;BMP280;39568;51.026;5.468;2023-03-14T04:53:55;98135.97;;;9.13
53667;BMP280;39568;51.026;5.468;2023-03-14T04:56:22;98137.94;;;9.12
53667;BMP280;39568;51.026;5.468;2023-03-14T04:58:48;98124.47;;;9.10
53667;BMP280;39568;51.026;5.468;2023-03-14T05:01:15;98117.94;;;9.11
53667;BMP280;39568;51.026;5.468;2023-03-14T05:03:44;98137.03;;;9.10
53667;BMP280;39568;51.026;5.468;2023-03-14T05:06:11;98133.31;;;9.20
53667;BMP280;39568;51.026;5.468;2023-03-14T05:08:37;98117.94;;;9.11
53667;BMP280;39568;51.026;5.468;2023-03-14T05:11:05;98115.66;;;9.15
53667;BMP280;39568;51.026;5.468;2023-03-14T05:13:31;98106.59;;;9.18
53667;BMP280;39568;51.026;5.468;2023-03-14T05:16:05;98112.97;;;9.23
53667;BMP280;39568;51.026;5.468;2023-03-14T05:18:32;98108.38;;;9.23
53667;BMP280;39568;51.026;5.468;2023-03-14T05:21:00;98110.84;;;9.21
53667;BMP280;39568;51.026;5.468;2023-03-14T05:23:27;98115.66;;;9.15
53667;BMP280;39568;51.026;5.468;2023-03-14T05:25:54;98108.75;;;9.12
53667;BMP280;39568;51.026;5.468;2023-03-14T05:28:21;98101.50;;;9.05
53667;BMP280;39568;51.026;5.468;2023-03-14T05:30:48;98105.91;;;9.10
53667;BMP280;39568;51.026;5.468;2023-03-14T05:33:14;98089.28;;;9.10
53667;BMP280;39568;51.026;5.468;2023-03-14T05:35:42;98095.66;;;9.07
53667;BMP280;39568;51.026;5.468;2023-03-14T05:38:10;98093.56;;;9.05
53667;BMP280;39568;51.026;5.468;2023-03-14T05:40:36;98090.34;;;9.07
53667;BMP280;39568;51.026;5.468;2023-03-14T05:43:03;98101.13;;;9.09
53667;BMP280;39568;51.026;5.468;2023-03-14T05:45:30;98101.66;;;9.22
53667;BMP280;39568;51.026;5.468;2023-03-14T05:47:57;98112.25;;;9.22
53667;BMP280;39568;51.026;5.468;2023-03-14T05:50:23;98110.13;;;9.21
53667;BMP280;39568;51.026;5.468;2023-03-14T05:52:50;98101.13;;;9.16
53667;BMP280;39568;51.026;5.468;2023-03-14T05:55:18;98106.59;;;9.18
53667;BMP280;39568;51.026;5.468;2023-03-14T05:57:45;98096.50;;;9.24
53667;BMP280;39568;51.026;5.468;2023-03-14T06:00:12;98085.19;;;9.31
53667;BMP280;39568;51.026;5.468;2023-03-14T06:02:39;98080.78;;;9.19
53667;BMP280;39568;51.026;5.468;2023-03-14T06:05:07;98089.94;;;9.25
53667;BMP280;39568;51.026;5.468;2023-03-14T06:07:33;98094.03;;;9.26
53667;BMP280;39568;51.026;5.468;2023-03-14T06:10:00;98096.13;;;9.35
53667;BMP280;39568;51.026;5.468;2023-03-14T06:12:28;98094.19;;;9.28
53667;BMP280;39568;51.026;5.468;2023-03-14T06:14:55;98102.00;;;9.19
53667;BMP280;39568;51.026;5.468;2023-03-14T06:17:22;98093.84;;;9.24
53667;BMP280;39568;51.026;5.468;2023-03-14T06:19:48;98085.72;;;9.30
53667;BMP280;39568;51.026;5.468;2023-03-14T06:22:15;98094.91;;;9.29
53667;BMP280;39568;51.026;5.468;2023-03-14T06:24:42;98082.19;;;9.27
53667;BMP280;39568;51.026;5.468;2023-03-14T06:27:08;98084.81;;;9.35
53667;BMP280;39568;51.026;5.468;2023-03-14T06:29:37;98102.16;;;9.21
53667;BMP280;39568;51.026;5.468;2023-03-14T06:32:04;98089.56;;;9.36
53667;BMP280;39568;51.026;5.468;2023-03-14T06:34:31;98095.56;;;9.37
53667;BMP280;39568;51.026;5.468;2023-03-14T06:36:57;98091.22;;;9.24
53667;BMP280;39568;51.026;5.468;2023-03-14T06:39:24;98090.66;;;9.33
53667;BMP280;39568;51.026;5.468;2023-03-14T06:41:51;98101.78;;;9.39
53667;BMP280;39568;51.026;5.468;2023-03-14T06:44:17;98104.41;;;9.47
53667;BMP280;39568;51.026;5.468;2023-03-14T06:46:45;98093.44;;;9.50
53667;BMP280;39568;51.026;5.468;2023-03-14T06:49:12;98113.03;;;9.55
53667;BMP280;39568;51.026;5.468;2023-03-14T06:51:39;98104.88;;;9.53
53667;BMP280;39568;51.026;5.468;2023-03-14T06:54:06;98094.09;;;9.58
53667;BMP280;39568;51.026;5.468;2023-03-14T06:56:32;98100.78;;;9.67
53667;BMP280;39568;51.026;5.468;2023-03-14T06:58:59;98113.50;;;9.61
53667;BMP280;39568;51.026;5.468;2023-03-14T07:01:27;98113.50;;;9.61
53667;BMP280;39568;51.026;5.468;2023-03-14T07:03:56;98102.13;;;9.76
53667;BMP280;39568;51.026;5.468;2023-03-14T07:06:23;98104.38;;;9.87
53667;BMP280;39568;51.026;5.468;2023-03-14T07:08:50;98119.03;;;9.95
53667;BMP280;39568;51.026;5.468;2023-03-14T07:11:17;98111.94;;;9.98
53667;BMP280;39568;51.026;5.468;2023-03-14T07:13:43;98129.81;;;9.97
53667;BMP280;39568;51.026;5.468;2023-03-14T07:16:10;98125.69;;;10.04
53667;BMP280;39568;51.026;5.468;2023-03-14T07:18:37;98121.94;;;10.07
53667;BMP280;39568;51.026;5.468;2023-03-14T07:21:06;98128.72;;;10.00
53667;BMP280;39568;51.026;5.468;2023-03-14T07:23:34;98143.78;;;9.98
53667;BMP280;39568;51.026;5.468;2023-03-14T07:26:01;98132.84;;;9.94
53667;BMP280;39568;51.026;5.468;2023-03-14T07:28:28;98150.72;;;9.93
53667;BMP280;39568;51.026;5.468;2023-03-14T07:30:55;98170.88;;;9.96
53667;BMP280;39568;51.026;5.468;2023-03-14T07:33:22;98161.72;;;9.90
53667;BMP280;39568;51.026;5.468;2023-03-14T07:35:49;98163.69;;;9.82
53667;BMP280;39568;51.026;5.468;2023-03-14T07:38:17;98171.81;;;9.84
53667;BMP280;39568;51.026;5.468;2023-03-14T07:40:44;98177.84;;;9.84
53667;BMP280;39568;51.026;5.468;2023-03-14T07:43:10;98191.31;;;9.86
53667;BMP280;39568;51.026;5.468;2023-03-14T07:45:37;98187.41;;;9.80
53667;BMP280;39568;51.026;5.468;2023-03-14T07:48:04;98192.72;;;9.80
53667;BMP280;39568;51.026;5.468;2023-03-14T07:50:31;98192.38;;;9.76
53667;BMP280;39568;51.026;5.468;2023-03-14T07:52:57;98197.22;;;9.70
53667;BMP280;39568;51.026;5.468;2023-03-14T07:55:26;98208.31;;;9.76
53667;BMP280;39568;51.026;5.468;2023-03-14T07:57:52;98262.84;;;9.69
53667;BMP280;39568;51.026;5.468;2023-03-14T08:00:20;98302.81;;;8.73
53667;BMP280;39568;51.026;5.468;2023-03-14T08:02:46;98314.84;;;8.30
53667;BMP280;39568;51.026;5.468;2023-03-14T08:05:13;98306.44;;;8.04
53667;BMP280;39568;51.026;5.468;2023-03-14T08:07:40;98321.56;;;7.96
53667;BMP280;39568;51.026;5.468;2023-03-14T08:10:08;98336.25;;;7.76
53667;BMP280;39568;51.026;5.468;2023-03-14T08:12:36;98344.22;;;7.55
53667;BMP280;39568;51.026;5.468;2023-03-14T08:15:03;98361.09;;;7.52
53667;BMP280;39568;51.026;5.468;2023-03-14T08:17:30;98345.84;;;7.38
53667;BMP280;39568;51.026;5.468;2023-03-14T08:19:57;98369.75;;;7.32
53667;BMP280;39568;51.026;5.468;2023-03-14T08:22:23;98382.41;;;7.26
53667;BMP280;39568;51.026;5.468;2023-03-14T08:24:50;98397.16;;;7.21
53667;BMP280;39568;51.026;5.468;2023-03-14T08:27:17;98391.78;;;7.14
53667;BMP280;39568;51.026;5.468;2023-03-14T08:29:45;98410.19;;;7.06
53667;BMP280;39568;51.026;5.468;2023-03-14T08:32:12;98426.28;;;7.08
53667;BMP280;39568;51.026;5.468;2023-03-14T08:34:38;98430.53;;;7.11
53667;BMP280;39568;51.026;5.468;2023-03-14T08:37:05;98446.50;;;7.06
53667;BMP280;39568;51.026;5.468;2023-03-14T08:39:32;98444.19;;;7.02
53667;BMP280;39568;51.026;5.468;2023-03-14T08:41:59;98459.22;;;7.07
53667;BMP280;39568;51.026;5.468;2023-03-14T08:44:25;98463.69;;;7.12
53667;BMP280;39568;51.026;5.468;2023-03-14T08:46:53;98468.19;;;7.04
53667;BMP280;39568;51.026;5.468;2023-03-14T08:49:20;98479.56;;;7.12
53667;BMP280;39568;51.026;5.468;2023-03-14T08:51:47;98496.09;;;7.26
53667;BMP280;39568;51.026;5.468;2023-03-14T08:54:13;98499.97;;;7.25
53667;BMP280;39568;51.026;5.468;2023-03-14T08:56:40;98515.94;;;7.19
53667;BMP280;39568;51.026;5.468;2023-03-14T08:59:07;98518.28;;;7.10
53667;BMP280;39568;51.026;5.468;2023-03-14T09:01:35;98527.94;;;7.20
53667;BMP280;39568;51.026;5.468;2023-03-14T09:04:03;98526.28;;;7.17
53667;BMP280;39568;51.026;5.468;2023-03-14T09:06:30;98535.66;;;7.18
53667;BMP280;39568;51.026;5.468;2023-03-14T09:08:57;98547.34;;;7.10
53667;BMP280;39568;51.026;5.468;2023-03-14T09:11:23;98571.56;;;7.14
53667;BMP280;39568;51.026;5.468;2023-03-14T09:13:50;98569.84;;;7.03
53667;BMP280;39568;51.026;5.468;2023-03-14T09:16:17;98580.22;;;7.14
53667;BMP280;39568;51.026;5.468;2023-03-14T09:18:44;98586.78;;;6.95
53667;BMP280;39568;51.026;5.468;2023-03-14T09:21:12;98593.63;;;6.90
53667;BMP280;39568;51.026;5.468;2023-03-14T09:23:38;98604.94;;;7.04
53667;BMP280;39568;51.026;5.468;2023-03-14T09:26:06;98623.31;;;7.09
53667;BMP280;39568;51.026;5.468;2023-03-14T09:28:32;98618.63;;;7.02
53667;BMP280;39568;51.026;5.468;2023-03-14T09:31:05;98630.66;;;7.03
53667;BMP280;39568;51.026;5.468;2023-03-14T09:33:33;98640.81;;;7.12
53667;BMP280;39568;51.026;5.468;2023-03-14T09:36:00;98646.84;;;7.26
53667;BMP280;39568;51.026;5.468;2023-03-14T09:38:28;98653.16;;;7.36
53667;BMP280;39568;51.026;5.468;2023-03-14T09:40:57;98660.94;;;7.28
53667;BMP280;39568;51.026;5.468;2023-03-14T09:43:26;98668.00;;;7.26
53667;BMP280;39568;51.026;5.468;2023-03-14T09:45:54;98691.50;;;7.16
53667;BMP280;39568;51.026;5.468;2023-03-14T09:48:26;98696.78;;;7.16
53667;BMP280;39568;51.026;5.468;2023-03-14T09:50:54;98701.66;;;7.12
53667;BMP280;39568;51.026;5.468;2023-03-14T09:53:25;98713.50;;;7.06
53667;BMP280;39568;51.026;5.468;2023-03-14T09:55:54;98728.88;;;7.07
53667;BMP280;39568;51.026;5.468;2023-03-14T09:58:24;98737.41;;;7.00
53667;BMP280;39568;51.026;5.468;2023-03-14T10:00:53;98737.41;;;7.00
53667;BMP280;39568;51.026;5.468;2023-03-14T10:03:25;98741.38;;;7.07
53667;BMP280;39568;51.026;5.468;2023-03-14T10:05:52;98760.09;;;7.09
53667;BMP280;39568;51.026;5.468;2023-03-14T10:08:20;98743.59;;;7.35
53667;BMP280;39568;51.026;5.468;2023-03-14T10:10:47;98758.06;;;7.47
53667;BMP280;39568;51.026;5.468;2023-03-14T10:13:17;98784.31;;;7.58
53667;BMP280;39568;51.026;5.468;2023-03-14T10:15:48;98796.94;;;7.52
53667;BMP280;39568;51.026;5.468;2023-03-14T10:18:15;98788.25;;;7.38
53667;BMP280;39568;51.026;5.468;2023-03-14T10:20:43;98805.00;;;7.41
53667;BMP280;39568;51.026;5.468;2023-03-14T10:23:23;98824.38;;;7.36
53667;BMP280;39568;51.026;5.468;2023-03-14T10:26:00;98828.75;;;7.46
53667;BMP280;39568;51.026;5.468;2023-03-14T10:28:32;98836.47;;;7.63
53667;BMP280;39568;51.026;5.468;2023-03-14T10:31:00;98849.03;;;7.57
53667;BMP280;39568;51.026;5.468;2023-03-14T10:33:28;98879.03;;;7.46
53667;BMP280;39568;51.026;5.468;2023-03-14T10:35:57;98868.94;;;7.45
53667;BMP280;39568;51.026;5.468;2023-03-14T10:38:27;98868.63;;;7.35
53667;BMP280;39568;51.026;5.468;2023-03-14T10:40:55;98887.09;;;7.03
53667;BMP280;39568;51.026;5.468;2023-03-14T10:43:25;98850.56;;;7.02
53667;BMP280;39568;51.026;5.468;2023-03-14T10:45:55;98892.06;;;6.88
53667;BMP280;39568;51.026;5.468;2023-03-14T10:48:29;98904.00;;;6.95
53667;BMP280;39568;51.026;5.468;2023-03-14T10:50:57;98912.44;;;7.31
53667;BMP280;39568;51.026;5.468;2023-03-14T10:53:25;98919.16;;;7.32
53667;BMP280;39568;51.026;5.468;2023-03-14T10:55:52;98932.16;;;7.30
53667;BMP280;39568;51.026;5.468;2023-03-14T10:58:24;98946.25;;;7.19
53667;BMP280;39568;51.026;5.468;2023-03-14T11:00:57;98966.94;;;6.96
53667;BMP280;39568;51.026;5.468;2023-03-14T11:03:27;98962.72;;;6.88
53667;BMP280;39568;51.026;5.468;2023-03-14T11:05:57;98979.09;;;6.62
53667;BMP280;39568;51.026;5.468;2023-03-14T11:08:29;98975.13;;;6.44
53667;BMP280;39568;51.026;5.468;2023-03-14T11:11:04;98996.13;;;6.61
53667;BMP280;39568;51.026;5.468;2023-03-14T11:13:38;98993.59;;;6.74
53667;BMP280;39568;51.026;5.468;2023-03-14T11:16:13;98995.88;;;6.64
53667;BMP280;39568;51.026;5.468;2023-03-14T11:18:59;99016.31;;;6.58
53667;BMP280;39568;51.026;5.468;2023-03-14T11:21:30;99020.56;;;6.67
53667;BMP280;39568;51.026;5.468;2023-03-14T11:24:08;99027.00;;;6.77
53667;BMP280;39568;51.026;5.468;2023-03-14T11:26:39;99044.38;;;6.91
53667;BMP280;39568;51.026;5.468;2023-03-14T11:29:16;99052.63;;;7.06
53667;BMP280;39568;51.026;5.468;2023-03-14T11:31:47;99053.41;;;6.77
53667;BMP280;39568;51.026;5.468;2023-03-14T11:34:17;99069.50;;;6.79
53667;BMP280;39568;51.026;5.468;2023-03-14T11:36:48;99077.56;;;6.87
53667;BMP280;39568;51.026;5.468;2023-03-14T11:39:19;99079.75;;;6.88
53667;BMP280;39568;51.026;5.468;2023-03-14T11:41:48;99091.66;;;7.00
53667;BMP280;39568;51.026;5.468;2023-03-14T11:44:18;99113.69;;;7.08
53667;BMP280;39568;51.026;5.468;2023-03-14T11:46:50;99111.59;;;7.25
53667;BMP280;39568;51.026;5.468;2023-03-14T11:49:30;99132.09;;;7.44
53667;BMP280;39568;51.026;5.468;2023-03-14T11:51:59;99131.41;;;7.62
53667;BMP280;39568;51.026;5.468;2023-03-14T11:54:33;99141.16;;;8.10
53667;BMP280;39568;51.026;5.468;2023-03-14T11:57:02;99126.50;;;8.40
53667;BMP280;39568;51.026;5.468;2023-03-14T11:59:33;99134.91;;;8.45
53667;BMP280;39568;51.026;5.468;2023-03-14T12:02:12;99138.63;;;8.17
53667;BMP280;39568;51.026;5.468;2023-03-14T12:04:49;99157.38;;;8.06
53667;BMP280;39568;51.026;5.468;2023-03-14T12:07:20;99156.47;;;8.17
53667;BMP280;39568;51.026;5.468;2023-03-14T12:09:50;99154.03;;;7.39
53667;BMP280;39568;51.026;5.468;2023-03-14T12:12:20;99167.09;;;7.01
53667;BMP280;39568;51.026;5.468;2023-03-14T12:14:53;99162.44;;;6.83
53667;BMP280;39568;51.026;5.468;2023-03-14T12:17:25;99183.13;;;6.79
53667;BMP280;39568;51.026;5.468;2023-03-14T12:20:04;99189.19;;;6.68
53667;BMP280;39568;51.026;5.468;2023-03-14T12:22:34;99194.22;;;7.07
53667;BMP280;39568;51.026;5.468;2023-03-14T12:25:05;99199.31;;;7.54
53667;BMP280;39568;51.026;5.468;2023-03-14T12:30:30;99208.59;;;8.46
53667;BMP280;39568;51.026;5.468;2023-03-14T12:33:32;99213.75;;;8.20
53667;BMP280;39568;51.026;5.468;2023-03-14T12:36:04;99230.88;;;8.37
53667;BMP280;39568;51.026;5.468;2023-03-14T12:41:36;99243.03;;;7.36
53667;BMP280;39568;51.026;5.468;2023-03-14T12:50:33;99268.78;;;7.00
53667;BMP280;39568;51.026;5.468;2023-03-14T12:53:30;99271.44;;;7.00
53667;BMP280;39568;51.026;5.468;2023-03-14T12:56:05;99268.00;;;7.05
53667;BMP280;39568;51.026;5.468;2023-03-14T12:58:35;99274.75;;;7.06
53667;BMP280;39568;51.026;5.468;2023-03-14T13:01:07;99293.88;;;7.23
53667;BMP280;39568;51.026;5.468;2023-03-14T13:03:45;99277.72;;;7.57
53667;BMP280;39568;51.026;5.468;2023-03-14T13:12:28;99298.22;;;8.05
53667;BMP280;39568;51.026;5.468;2023-03-14T13:14:58;99316.53;;;8.03
53667;BMP280;39568;51.026;5.468;2023-03-14T13:17:27;99333.34;;;7.81
53667;BMP280;39568;51.026;5.468;2023-03-14T13:19:56;99336.31;;;7.72
53667;BMP280;39568;51.026;5.468;2023-03-14T13:22:28;99339.81;;;7.56
53667;BMP280;39568;51.026;5.468;2023-03-14T13:25:00;99334.75;;;7.58
53667;BMP280;39568;51.026;5.468;2023-03-14T13:27:30;99342.09;;;7.70
53667;BMP280;39568;51.026;5.468;2023-03-14T13:29:58;99355.25;;;7.81
53667;BMP280;39568;51.026;5.468;2023-03-14T13:32:28;99353.78;;;8.10
53667;BMP280;39568;51.026;5.468;2023-03-14T13:34:56;99375.63;;;8.59
53667;BMP280;39568;51.026;5.468;2023-03-14T13:37:24;99377.38;;;9.13
53667;BMP280;39568;51.026;5.468;2023-03-14T13:39:54;99378.53;;;8.98
53667;BMP280;39568;51.026;5.468;2023-03-14T13:42:25;99388.56;;;8.87
53667;BMP280;39568;51.026;5.468;2023-03-14T13:44:53;99391.00;;;8.42
53667;BMP280;39568;51.026;5.468;2023-03-14T13:47:23;99400.19;;;8.41
53667;BMP280;39568;51.026;5.468;2023-03-14T13:49:50;99397.72;;;8.19
53667;BMP280;39568;51.026;5.468;2023-03-14T13:52:22;99405.31;;;8.09
53667;BMP280;39568;51.026;5.468;2023-03-14T13:54:53;99408.16;;;7.87
53667;BMP280;39568;51.026;5.468;2023-03-14T13:57:20;99416.88;;;7.82
53667;BMP280;39568;51.026;5.468;2023-03-14T13:59:59;99424.66;;;7.69
53667;BMP280;39568;51.026;5.468;2023-03-14T14:02:27;99427.06;;;7.67
53667;BMP280;39568;51.026;5.468;2023-03-14T14:04:54;99438.25;;;7.84
53667;BMP280;39568;51.026;5.468;2023-03-14T14:07:22;99441.97;;;8.05
53667;BMP280;39568;51.026;5.468;2023-03-14T14:09:50;99446.69;;;8.12
53667;BMP280;39568;51.026;5.468;2023-03-14T14:12:23;99458.91;;;8.21
53667;BMP280;39568;51.026;5.468;2023-03-14T14:14:55;99469.81;;;8.42
53667;BMP280;39568;51.026;5.468;2023-03-14T14:17:26;99476.00;;;8.50
53667;BMP280;39568;51.026;5.468;2023-03-14T14:19:54;99467.97;;;8.31
53667;BMP280;39568;51.026;5.468;2023-03-14T14:22:21;99475.31;;;8.44
53667;BMP280;39568;51.026;5.468;2023-03-14T14:24:48;99484.56;;;8.61
53667;BMP280;39568;51.026;5.468;2023-03-14T14:27:23;99491.69;;;8.48
53667;BMP280;39568;51.026;5.468;2023-03-14T14:29:58;99502.84;;;8.65
53667;BMP280;39568;51.026;5.468;2023-03-14T14:32:26;99503.78;;;8.67
53667;BMP280;39568;51.026;5.468;2023-03-14T14:34:58;99507.47;;;8.59
53667;BMP280;39568;51.026;5.468;2023-03-14T14:37:25;99521.44;;;8.59
53667;BMP280;39568;51.026;5.468;2023-03-14T14:39:54;99532.50;;;8.63
53667;BMP280;39568;51.026;5.468;2023-03-14T14:42:26;99533.69;;;8.62
53667;BMP280;39568;51.026;5.468;2023-03-14T14:44:53;99542.41;;;8.33